Startpagina
METAR-TAF:

METAR-TAF

Vliegvelden :

Luchthaven Mitiga Internationaal

Tripoli, Libië

breedte: 32-54N, lengte: 13-17E, hoogte: 11 m

METAR: ontbreekt

Tijdstip: 09:19 (07:19 UTC)

Verwachting

Dit bericht is 2 uur en het 19 minuten geleden gemaakt, om 05:00 UTC
Verwachting geldig van 16 om 06 UTC tot 17 om 06 UTC
Wind 15 kt uit het noordnoordoosten
Zicht: 8000 m
Verspreide wolken op 2500 ft
Verspreide wolken op 8000 ft
Kans %
tussen 30 en het UTC
Tijdelijke
van 16 om 08 UTC tot 16 om 18 UTC
Zicht: 6000 m
Gebroken wolken op 3000 ft
Gebroken wolken op 7000 ft
regen

TAF: HLLM 160500Z 1606/1706 03015KT 8000 SCT025 SCT080 PROB 30 TEMPO 1608/1618 6000 RA BKN030 BKN070

Waarnemingen en weersverwachtingen van meer dan 4000 vliegvelden (METAR en TAF).

De beschikbare stations zijn de gele en rode punten op de kaart.

Ga met uw muis naar het station om de naam te zien.

Klik dan om waarnemingen en weersverwachtingen te zien.

kaart wijzigen: klik op de groene knoppen met een zwart kruis om in te zoomen, op de groene knop met een streepje om uit te zoomen of op de groene pijlen voor aangrenzende kaarten.


METAR-TAF: